Terminal Aerodrome Forecast
Issued by NWS Bismarck, ND

Home | Current Version | Previous Version | Text Only | Print | Product List | Glossary On
Versions: 1 2 3 4 5 6 7 8 9 10 11 12
000
FTUS43 KBIS 301132
TAFISN
TAF
KISN 301132Z 3012/3112 00000KT P6SM SKC
     FM301500 13009KT P6SM FEW250
     FM302100 14013G20KT P6SM FEW250
     FM310300 11011KT P6SM SCT250=

USA.gov is the U.S. government's official web portal to all federal, state and local government web resources and services.